world map with OZZ marked

OZZ - Airport

This information may not be accurate or current and is not valid for navigation or flight planning. No warranty of fitness for any purpose is made or implied.

flag of Morocco

Donate via PayPal

Additional information is available on the NEW Great Circle Mapper

Location
City:  Ouarzazate, Morocco
Near (Alt.):Wazan, Wazzan, Uessen
Name:Ouarzazate Airport
ICAO / IATA:GMMZ / OZZ

Details
Type:Airport (Aerodrome, Airfield)
Use:Public/Civil
Latitude:30°56'21"N (30.939053)
Longitude:6°54'34"W (-6.909430)
Datum:WGS 1984
Elevation:3782 ft (1153 m)
Runways:1
Longest:9842 × 148 ft (3000 × 45 m)

Time
Timezone:UTC+0 (DST+3)
Local Time:

Weather
METAR:GMMZ  041400Z 16004KT 090V240 CAVOK 18/M10 Q1026 NOSIG
TAF:GMMZ  041100Z 0412/0518 VRB02KT 8000 NSC

Related Locations
Nearby:
Farthest:NZMG: 12150 mi / 19553 km
Mangonui [Heliport], NTL, NZ

Find:

   beyond  
but within

Other Information
Maps:
Sources:

  


 


Great Circle Mapper   Great Circle Mapper
Great Circle Mapper FAQ   Great Circle Mapper FAQ
  Karl's Home Page
KLSē   KLSē Home
   GC on Facebook
Airlines of the World   Airlines of the World
Donate via PayPal


Copyright © 2004-2019, Karl L. Swartz. All rights reserved.
All trademarks mentioned herein belong to their respective owners.

Please see credits for attribution and copyright information.

Karl Swartz <karl@kls2.com>
  Powered by FreeBSD
Valid HTML 4.01!
Labeled with ICRA
hCard Microformat
Geo Microformat